KPMD

Palmdale Usaf Plant 42 Airport

Palmdale, California, USA
METAR KPMD 160553Z AUTO 23017KT 10SM CLR 28/10 A2999 RMK AO2 SLP119 T02830100 10350 20278 51016
Observed Flight Rules
Aug-16 @ 05:53 UTC (25 minutes ago) Visual Flight Rules
Wind Visibility Clouds
230° at 17 knots 10 miles
  • Clear skies
Temperatures Readings
Current 28°C / 82°F
Dewpoint 10°C / 50°F
Humidity 32%
Altimeter 29.99" Hg
Pressure 1011.9 hPa
Elevation 780
METAR KPMD 160553Z AUTO 23017KT 10SM CLR 28/10 A2999 RMK AO2 SLP119 T02830100 10350 20278 51016
Observed Flight Rules
Aug-16 @ 05:53 UTC
(25 minutes ago)
VFR
Wind Visibility
230° at 17 knots 10 miles
Clouds
  • Clear skies
Temperature Dewpoint
28°C / 82°F 10°C / 50°F
Humidity Altimeter Pressure
32% 29.99" Hg 1011.9 hPa